Main page
METAR-TAF:

METAR-TAF

Airports :

Figari–Sud Corse Airport

Figari, France

latitude: 41-30N, longitude: 009-06E, elevation: 26 m

Current weather observation

The report was made 34 minutes ago, at 13:30 UTC
Wind 2 kt from variable directions
Temperature 23°C
Humidity 69%
Pressure 1020 hPa
Visibility 10 km or more
no clouds below 1500 m and no cumulonimbus

METAR: LFKF 201330Z AUTO VRB02KT CAVOK 23/17 Q1020 NOSIG

Time: 16:04 (14:04 UTC)

Forecast

The report was made 6 hours and 4 minutes ago, at 08:00 UTC
Forecast valid from 20 at 09 UTC to 21 at 09 UTC
Wind 5 kt from the Northeast
Visibility 10 km or more
no clouds below 1500 m and no cumulonimbus
Probability 30% :
Temporary
from 20 at 23 UTC to 21 at 04 UTC
Shallow fog

TAF: LFKF 200800Z 2009/2109 05005KT CAVOK PROB30 TEMPO 2023/2104 MIFG

Weather observations and forecasts of more than 4000 airports (METAR and TAF reports).

The available stations are represented by yellow and red dots on the map.

Hover mouse over dot to see the name of the station.

Then click to see weather observations and forecasts.

To change the map : click on the green buttons with a black cross to zoom in, on the green button with a dash to zoom out, or on the green arrows for adjacent maps.


METAR-TAF: